createdAt,value
2023-01-09T00:01:30.545Z,35.33
2023-01-09T00:04:00.898Z,34.88
2023-01-09T00:06:29.398Z,41.45
2023-01-09T00:08:58.108Z,33.22
2023-01-09T00:11:26.162Z,32.25
2023-01-09T00:13:54.315Z,27.38
2023-01-09T00:16:22.571Z,31.92
2023-01-09T00:18:53.254Z,31.90
2023-01-09T00:21:21.623Z,34.45
2023-01-09T00:23:49.522Z,24.33
2023-01-09T00:26:19.770Z,25.73
2023-01-09T00:28:49.229Z,35.13
2023-01-09T00:31:18.466Z,29.85
2023-01-09T00:33:53.752Z,29.02
2023-01-09T00:36:21.862Z,34.17
2023-01-09T00:38:50.310Z,29.67
2023-01-09T00:41:21.772Z,29.23
2023-01-09T00:43:54.258Z,26.20
2023-01-09T00:46:26.046Z,27.55
2023-01-09T00:48:55.394Z,26.10
2023-01-09T00:51:24.184Z,27.00
2023-01-09T00:53:53.138Z,28.08
2023-01-09T00:56:21.879Z,22.52
2023-01-09T00:58:50.600Z,24.05
2023-01-09T01:01:18.609Z,25.10
2023-01-09T01:03:46.746Z,22.98
2023-01-09T01:06:33.589Z,21.83
2023-01-09T01:09:01.827Z,23.15
2023-01-09T01:11:29.788Z,22.90
2023-01-09T01:13:57.858Z,27.40
2023-01-09T01:16:26.270Z,36.28
2023-01-09T01:18:54.209Z,29.10
2023-01-09T01:21:23.463Z,34.85
2023-01-09T01:23:51.447Z,48.35
2023-01-09T01:26:19.391Z,43.03
2023-01-09T01:28:47.387Z,49.20
2023-01-09T01:31:19.693Z,46.35
2023-01-09T01:33:47.919Z,43.20
2023-01-09T01:36:17.502Z,47.65
2023-01-09T01:38:47.813Z,27.88
2023-01-09T01:41:29.157Z,27.70
2023-01-09T01:43:59.011Z,37.28
2023-01-09T01:46:27.286Z,30.33
2023-01-09T01:49:00.317Z,28.92
2023-01-09T01:51:31.743Z,26.85
2023-01-09T01:54:06.603Z,25.58
2023-01-09T01:56:39.679Z,31.70
2023-01-09T01:59:11.006Z,35.00
2023-01-09T02:01:41.897Z,29.40
2023-01-09T02:04:10.922Z,27.23
2023-01-09T02:06:39.819Z,24.73
2023-01-09T02:09:10.213Z,31.10
2023-01-09T02:11:38.128Z,29.00
2023-01-09T02:14:06.125Z,25.10
2023-01-09T02:16:47.670Z,22.63
2023-01-09T02:19:38.233Z,26.35
2023-01-09T02:22:15.158Z,23.20
2023-01-09T02:25:04.700Z,24.73
2023-01-09T02:28:02.087Z,35.38
2023-01-09T02:30:41.586Z,26.55
2023-01-09T02:33:40.376Z,22.63
2023-01-09T02:36:24.697Z,33.08
2023-01-09T02:39:06.427Z,25.15
2023-01-09T02:41:39.348Z,23.40
2023-01-09T02:44:18.113Z,21.42
2023-01-09T02:46:47.456Z,18.42
2023-01-09T02:49:17.703Z,19.45
2023-01-09T02:51:52.936Z,19.83
2023-01-09T02:54:34.951Z,20.05
2023-01-09T02:57:20.604Z,19.95
2023-01-09T03:00:03.927Z,20.85
2023-01-09T03:02:45.405Z,15.27
2023-01-09T03:05:20.071Z,16.92
2023-01-09T03:07:55.683Z,13.30
2023-01-09T03:10:29.590Z,15.02
2023-01-09T03:12:59.191Z,16.77
2023-01-09T03:15:29.976Z,17.45
2023-01-09T03:18:02.096Z,13.80
2023-01-09T03:20:32.201Z,11.13
2023-01-09T03:23:01.786Z,13.02
2023-01-09T03:25:32.965Z,15.68
2023-01-09T03:28:02.638Z,9.05
2023-01-09T03:30:32.351Z,12.60
2023-01-09T03:33:01.716Z,14.35
2023-01-09T03:35:29.852Z,16.35
2023-01-09T03:37:58.971Z,13.55
2023-01-09T03:40:26.965Z,14.93
2023-01-09T03:42:54.866Z,11.70
2023-01-09T03:45:22.801Z,13.43
2023-01-09T03:47:52.979Z,16.05
2023-01-09T03:50:22.388Z,12.60
2023-01-09T03:52:50.353Z,12.43
2023-01-09T03:55:24.458Z,13.20
2023-01-09T03:57:53.052Z,14.70
2023-01-09T04:00:21.650Z,13.70
2023-01-09T04:02:50.348Z,12.05
2023-01-09T04:05:18.364Z,15.20
2023-01-09T04:07:47.643Z,10.70
2023-01-09T04:10:15.589Z,8.98
2023-01-09T04:12:43.515Z,11.77
2023-01-09T04:15:12.939Z,13.82
2023-01-09T04:17:40.863Z,11.82
2023-01-09T04:20:10.252Z,14.55
2023-01-09T04:22:38.411Z,13.75
2023-01-09T04:25:08.616Z,13.98
2023-01-09T04:27:38.758Z,16.45
2023-01-09T04:30:07.953Z,10.98
2023-01-09T04:32:35.869Z,12.63
2023-01-09T04:35:03.817Z,14.50
2023-01-09T04:37:31.738Z,12.18
2023-01-09T04:39:59.661Z,11.98
2023-01-09T04:42:28.896Z,11.93
2023-01-09T04:44:56.788Z,14.63
2023-01-09T04:47:24.726Z,14.50
2023-01-09T04:49:52.935Z,15.32
2023-01-09T04:52:20.922Z,11.90
2023-01-09T04:54:48.851Z,15.88
2023-01-09T04:57:16.774Z,19.13
2023-01-09T04:59:46.165Z,17.75
2023-01-09T05:02:14.368Z,22.25
2023-01-09T05:04:42.389Z,17.35
2023-01-09T05:07:10.668Z,19.45
2023-01-09T05:09:38.563Z,25.60
2023-01-09T05:12:07.154Z,19.33
2023-01-09T05:14:35.106Z,19.77
2023-01-09T05:17:04.365Z,18.17
2023-01-09T05:19:32.288Z,18.77
2023-01-09T05:22:00.190Z,14.55
2023-01-09T05:24:28.095Z,19.30
2023-01-09T05:26:56.006Z,19.90
2023-01-09T05:29:23.985Z,22.30
2023-01-09T05:31:52.776Z,19.92
2023-01-09T05:34:22.942Z,18.77
2023-01-09T05:36:51.021Z,17.88
2023-01-09T05:39:19.043Z,19.40
2023-01-09T05:41:47.016Z,15.90
2023-01-09T05:44:14.955Z,18.05
2023-01-09T05:46:42.888Z,14.38
2023-01-09T05:49:10.958Z,19.63
2023-01-09T05:51:40.203Z,14.40
2023-01-09T05:54:08.366Z,11.23
2023-01-09T05:56:36.331Z,13.07
2023-01-09T05:59:04.246Z,12.23
2023-01-09T06:01:32.247Z,12.95
2023-01-09T06:04:00.191Z,12.82
2023-01-09T06:06:28.205Z,12.90
2023-01-09T06:08:57.498Z,11.70
2023-01-09T06:11:25.444Z,12.65
2023-01-09T06:13:53.361Z,12.00
2023-01-09T06:16:21.436Z,11.80
2023-01-09T06:18:50.382Z,11.15
2023-01-09T06:21:18.299Z,11.65
2023-01-09T06:23:46.309Z,12.98
2023-01-09T06:26:15.727Z,9.52
2023-01-09T06:28:44.762Z,9.40
2023-01-09T06:31:13.267Z,10.20
2023-01-09T06:33:41.307Z,9.15
2023-01-09T06:36:09.937Z,11.65
2023-01-09T06:38:38.028Z,15.70
2023-01-09T06:41:06.404Z,13.95
2023-01-09T06:43:35.694Z,11.90
2023-01-09T06:46:05.477Z,9.27
2023-01-09T06:48:33.494Z,12.35
2023-01-09T06:51:01.727Z,13.35
2023-01-09T06:53:29.835Z,15.25
2023-01-09T06:55:57.757Z,14.27
2023-01-09T06:58:25.686Z,12.55
2023-01-09T07:00:55.704Z,9.15
2023-01-09T07:03:23.901Z,10.45
2023-01-09T07:05:52.267Z,11.25
2023-01-09T07:08:20.291Z,9.13
2023-01-09T07:10:48.189Z,9.63
2023-01-09T07:13:16.089Z,10.77
2023-01-09T07:15:44.100Z,9.52
2023-01-09T07:18:13.387Z,12.15
2023-01-09T07:20:41.573Z,12.23
2023-01-09T07:23:11.934Z,12.70
2023-01-09T07:25:40.048Z,15.63
2023-01-09T07:28:08.183Z,12.65
2023-01-09T07:30:36.150Z,13.55
2023-01-09T07:33:04.275Z,12.48
2023-01-09T07:35:33.745Z,17.33
2023-01-09T07:38:01.713Z,15.27
2023-01-09T07:40:29.670Z,18.13
2023-01-09T07:42:57.636Z,15.05
2023-01-09T07:45:25.568Z,14.57
2023-01-09T07:47:53.664Z,11.20
2023-01-09T07:50:23.674Z,14.38
2023-01-09T07:52:54.088Z,10.07
2023-01-09T07:55:21.990Z,12.20
2023-01-09T07:57:50.869Z,14.55
2023-01-09T08:00:21.015Z,17.75
2023-01-09T08:02:53.733Z,12.55
2023-01-09T08:05:22.228Z,9.50
2023-01-09T08:07:51.239Z,11.63
2023-01-09T08:10:21.014Z,8.30
2023-01-09T08:12:49.888Z,11.73
2023-01-09T08:15:18.167Z,14.05
2023-01-09T08:17:47.613Z,10.25
2023-01-09T08:20:17.171Z,9.70
2023-01-09T08:22:49.492Z,10.98
2023-01-09T08:25:18.281Z,12.82
2023-01-09T08:27:47.775Z,12.50
2023-01-09T08:30:16.956Z,11.73
2023-01-09T08:32:47.638Z,12.77
2023-01-09T08:35:15.697Z,10.88
2023-01-09T08:37:45.023Z,8.93
2023-01-09T08:40:14.012Z,9.98
2023-01-09T08:42:55.948Z,9.45
2023-01-09T08:45:43.041Z,8.80
2023-01-09T08:48:11.566Z,11.48
2023-01-09T08:50:39.598Z,9.02
2023-01-09T08:53:07.508Z,8.93
2023-01-09T08:55:35.462Z,10.80
2023-01-09T08:58:03.706Z,12.60
2023-01-09T09:00:33.016Z,9.98
2023-01-09T09:03:02.273Z,11.15
2023-01-09T09:05:31.712Z,14.43
2023-01-09T09:08:00.171Z,9.88
2023-01-09T09:10:29.711Z,11.20
2023-01-09T09:12:59.475Z,9.93
2023-01-09T09:15:28.868Z,9.13
2023-01-09T09:18:00.522Z,7.57
2023-01-09T09:20:30.842Z,11.35
2023-01-09T09:22:58.783Z,10.85
2023-01-09T09:25:26.853Z,11.73
2023-01-09T09:27:55.873Z,13.35
2023-01-09T09:30:25.300Z,13.15
2023-01-09T09:32:53.315Z,11.55
2023-01-09T09:35:23.241Z,17.25
2023-01-09T09:37:55.319Z,16.60
2023-01-09T09:41:04.031Z,19.35
2023-01-09T09:44:05.550Z,12.98
2023-01-09T09:46:41.308Z,12.50
2023-01-09T09:49:15.954Z,15.20
2023-01-09T09:52:06.736Z,17.15
2023-01-09T09:54:40.879Z,11.23
2023-01-09T09:57:15.637Z,13.25
2023-01-09T09:59:45.445Z,13.57
2023-01-09T10:02:26.771Z,10.98
2023-01-09T10:05:01.200Z,14.38
2023-01-09T10:07:38.419Z,16.52
2023-01-09T10:10:15.268Z,12.02
2023-01-09T10:12:49.550Z,12.70
2023-01-09T10:15:19.515Z,14.70
2023-01-09T10:18:08.489Z,14.35
2023-01-09T10:20:57.709Z,12.75
2023-01-09T10:23:52.608Z,12.65
2023-01-09T10:26:26.035Z,15.27
2023-01-09T10:29:31.375Z,9.90
2023-01-09T10:32:18.735Z,13.40
2023-01-09T10:34:57.436Z,11.85
2023-01-09T10:37:30.178Z,13.80
2023-01-09T10:40:03.569Z,14.43
2023-01-09T10:42:36.628Z,12.50
2023-01-09T10:45:08.336Z,12.23
2023-01-09T10:47:40.328Z,11.98
2023-01-09T10:50:20.681Z,13.50
2023-01-09T10:52:51.173Z,15.27
2023-01-09T10:55:28.871Z,10.07
2023-01-09T10:58:02.492Z,11.65
2023-01-09T11:00:30.462Z,10.57
2023-01-09T11:02:58.385Z,12.93
2023-01-09T11:05:29.195Z,14.70
2023-01-09T11:08:02.771Z,13.80
2023-01-09T11:13:26.540Z,15.98
2023-01-09T11:16:09.169Z,14.30
2023-01-09T11:18:40.896Z,15.63
2023-01-09T11:21:31.574Z,19.52
2023-01-09T11:24:27.769Z,16.48
2023-01-09T11:27:29.538Z,18.45
2023-01-09T11:30:27.775Z,12.15
2023-01-09T11:32:57.093Z,17.85
2023-01-09T11:35:29.044Z,13.35
2023-01-09T11:38:13.473Z,12.55
2023-01-09T11:40:49.705Z,12.02
2023-01-09T11:43:30.666Z,11.55
2023-01-09T11:46:03.020Z,10.02
2023-01-09T11:48:36.764Z,11.27
2023-01-09T11:51:08.060Z,12.05
2023-01-09T11:53:49.780Z,10.77
2023-01-09T11:56:18.587Z,11.30
2023-01-09T11:58:46.673Z,7.38
2023-01-09T12:01:35.201Z,9.55
2023-01-09T12:04:20.466Z,7.40
2023-01-09T12:07:10.759Z,7.18
2023-01-09T12:09:46.302Z,7.50
2023-01-09T12:12:25.596Z,9.07
2023-01-09T12:15:09.862Z,11.32
2023-01-09T12:17:52.149Z,10.75
2023-01-09T12:20:34.017Z,12.55
2023-01-09T12:23:19.962Z,13.70
2023-01-09T12:25:57.788Z,13.82
2023-01-09T12:28:55.333Z,13.00
2023-01-09T12:31:39.839Z,13.80
2023-01-09T12:34:24.160Z,12.63
2023-01-09T12:36:59.527Z,15.48
2023-01-09T12:39:35.669Z,14.93
2023-01-09T12:42:14.053Z,10.90
2023-01-09T12:44:55.653Z,11.05
2023-01-09T12:47:45.613Z,16.63
2023-01-09T12:50:31.314Z,11.23
2023-01-09T12:53:10.079Z,12.63
2023-01-09T12:55:43.164Z,14.82
2023-01-09T12:58:31.895Z,14.30
2023-01-09T13:01:03.785Z,11.98
2023-01-09T13:03:37.879Z,13.90
2023-01-09T13:06:14.775Z,9.95
2023-01-09T13:08:45.670Z,10.15
2023-01-09T13:11:21.069Z,9.75
2023-01-09T13:13:55.755Z,9.90
2023-01-09T13:16:29.079Z,9.18
2023-01-09T13:19:00.175Z,8.85
2023-01-09T13:21:32.263Z,9.05
2023-01-09T13:24:06.715Z,10.32
2023-01-09T13:26:38.579Z,9.73
2023-01-09T13:29:14.205Z,11.57
2023-01-09T13:31:58.716Z,7.63
2023-01-09T13:34:30.162Z,9.63
2023-01-09T13:37:00.841Z,39.10
2023-01-09T13:39:32.215Z,15.23
2023-01-09T13:42:19.472Z,7.50
2023-01-09T13:44:49.927Z,7.53
2023-01-09T13:47:20.759Z,7.68
2023-01-09T13:50:22.246Z,7.10
2023-01-09T13:52:51.735Z,6.18
2023-01-09T13:55:26.485Z,10.82
2023-01-09T13:58:25.766Z,8.95
2023-01-09T14:01:00.633Z,7.07
2023-01-09T14:03:32.838Z,6.75
2023-01-09T14:06:18.474Z,5.72
2023-01-09T14:09:05.981Z,7.82
2023-01-09T14:11:34.162Z,8.13
2023-01-09T14:14:06.881Z,7.43
2023-01-09T14:16:38.003Z,13.38
2023-01-09T14:19:19.469Z,6.93
2023-01-09T14:21:51.874Z,5.43
2023-01-09T14:24:25.830Z,9.45
2023-01-09T14:26:57.081Z,8.75
2023-01-09T14:29:44.599Z,9.23
2023-01-09T14:32:46.890Z,6.57
2023-01-09T14:35:26.362Z,6.60
2023-01-09T14:38:05.186Z,7.35
2023-01-09T14:40:34.984Z,7.00
2023-01-09T14:43:13.784Z,7.70
2023-01-09T14:45:49.942Z,6.63
2023-01-09T14:48:19.079Z,6.05
2023-01-09T14:50:55.276Z,5.63
2023-01-09T14:53:27.095Z,8.23
2023-01-09T14:55:57.903Z,6.10
2023-01-09T14:58:27.639Z,6.50
2023-01-09T15:01:03.129Z,5.05
2023-01-09T15:03:35.841Z,8.75
2023-01-09T15:06:04.181Z,8.68
2023-01-09T15:08:33.073Z,7.65
2023-01-09T15:11:02.484Z,5.50
2023-01-09T15:13:36.901Z,5.43
2023-01-09T15:16:07.370Z,9.57
2023-01-09T15:18:44.848Z,9.50
2023-01-09T15:21:19.639Z,8.15
2023-01-09T15:23:47.799Z,15.30
2023-01-09T15:26:26.622Z,10.35
2023-01-09T15:29:01.180Z,7.30
2023-01-09T15:31:30.269Z,10.30
2023-01-09T15:33:58.463Z,9.10
2023-01-09T15:36:30.866Z,15.18
2023-01-09T15:39:00.350Z,13.35
2023-01-09T15:41:49.086Z,14.27
2023-01-09T15:44:20.415Z,25.27
2023-01-09T15:46:50.307Z,27.70
2023-01-09T15:49:19.798Z,28.92
2023-01-09T15:51:49.566Z,23.20
2023-01-09T15:54:19.303Z,18.33
2023-01-09T15:56:48.570Z,19.48
2023-01-09T15:59:27.963Z,18.75
2023-01-09T16:02:20.591Z,19.40
2023-01-09T16:04:49.761Z,27.52
2023-01-09T16:07:20.867Z,26.98
2023-01-09T16:09:52.604Z,27.98
2023-01-09T16:12:24.483Z,21.50
2023-01-09T16:14:55.120Z,11.98
2023-01-09T16:17:26.444Z,13.82
2023-01-09T16:19:58.288Z,10.15
2023-01-09T16:22:27.830Z,12.13
2023-01-09T16:24:57.725Z,11.50
2023-01-09T16:27:29.912Z,13.40
2023-01-09T16:29:59.534Z,17.60
2023-01-09T16:32:30.582Z,18.05
2023-01-09T16:35:00.791Z,15.90
2023-01-09T16:37:29.217Z,18.23
2023-01-09T16:40:27.268Z,21.15
2023-01-09T16:43:00.489Z,20.90
2023-01-09T16:45:31.364Z,18.55
2023-01-09T16:47:59.519Z,14.05
2023-01-09T16:50:27.637Z,18.60
2023-01-09T16:52:56.875Z,10.25
2023-01-09T16:55:25.822Z,8.40
2023-01-09T16:57:53.765Z,7.85
2023-01-09T17:00:26.215Z,15.68
2023-01-09T17:02:54.124Z,21.48
2023-01-09T17:05:22.319Z,17.10
2023-01-09T17:07:51.376Z,13.32
2023-01-09T17:10:22.783Z,11.82
2023-01-09T17:12:51.288Z,10.40
2023-01-09T17:15:19.406Z,16.25
2023-01-09T17:17:48.637Z,12.18
2023-01-09T17:20:18.909Z,9.63
2023-01-09T17:22:49.852Z,11.32
2023-01-09T17:25:35.931Z,8.05
2023-01-09T17:28:22.665Z,11.77
2023-01-09T17:30:50.866Z,12.25
2023-01-09T17:33:20.454Z,12.90
2023-01-09T17:35:48.532Z,13.52
2023-01-09T17:38:16.839Z,13.95
2023-01-09T17:40:45.585Z,11.25
2023-01-09T17:43:14.049Z,11.77
2023-01-09T17:45:42.922Z,25.70
2023-01-09T17:48:16.919Z,28.92
2023-01-09T17:50:47.242Z,46.15
2023-01-09T17:53:17.715Z,36.75
2023-01-09T17:55:45.960Z,29.02
2023-01-09T17:58:28.872Z,25.55
2023-01-09T18:00:57.592Z,13.95
2023-01-09T18:03:33.232Z,13.70
2023-01-09T18:06:03.345Z,14.27
2023-01-09T18:08:34.455Z,11.10
2023-01-09T18:11:05.783Z,15.35
2023-01-09T18:13:34.460Z,20.45
2023-01-09T18:16:02.493Z,23.25
2023-01-09T18:18:30.688Z,20.42
2023-01-09T18:20:58.760Z,17.77
2023-01-09T18:23:28.008Z,13.50
2023-01-09T18:25:55.936Z,10.55
2023-01-09T18:28:23.955Z,15.18
2023-01-09T18:30:54.626Z,10.85
2023-01-09T18:33:23.314Z,9.15
2023-01-09T18:35:54.128Z,9.52
2023-01-09T18:38:22.005Z,11.85
2023-01-09T18:40:51.260Z,10.40
2023-01-09T18:43:20.287Z,10.02
2023-01-09T18:45:48.219Z,10.98
2023-01-09T18:48:16.169Z,11.50
2023-01-09T18:50:45.573Z,10.52
2023-01-09T18:53:13.531Z,13.27
2023-01-09T18:55:41.529Z,13.88
2023-01-09T18:58:10.757Z,12.52
2023-01-09T19:00:41.214Z,14.32
2023-01-09T19:03:09.237Z,14.85
2023-01-09T19:05:37.218Z,12.00
2023-01-09T19:08:05.328Z,18.25
2023-01-09T19:10:34.167Z,16.25
2023-01-09T19:13:02.125Z,12.68
2023-01-09T19:15:31.919Z,14.90
2023-01-09T19:18:02.231Z,14.02
2023-01-09T19:20:30.122Z,13.23
2023-01-09T19:22:58.113Z,17.08
2023-01-09T19:25:28.928Z,16.00
2023-01-09T19:27:59.875Z,15.18
2023-01-09T19:30:27.900Z,13.88
2023-01-09T19:32:57.124Z,13.27
2023-01-09T19:35:27.474Z,17.13
2023-01-09T19:37:55.425Z,22.60
2023-01-09T19:40:23.315Z,19.40
2023-01-09T19:42:54.539Z,18.60
2023-01-09T19:45:22.884Z,15.60
2023-01-09T19:47:51.313Z,11.45
2023-01-09T19:50:21.901Z,15.55
2023-01-09T19:52:50.764Z,10.95
2023-01-09T19:55:18.723Z,9.43
2023-01-09T19:57:46.843Z,9.40
2023-01-09T20:00:16.420Z,8.07
2023-01-09T20:02:44.411Z,7.57
2023-01-09T20:05:12.365Z,6.30
2023-01-09T20:07:43.840Z,7.00
2023-01-09T20:10:12.429Z,8.70
2023-01-09T20:12:40.943Z,6.10
2023-01-09T20:15:14.682Z,9.70
2023-01-09T20:17:43.108Z,6.55
2023-01-09T20:20:12.000Z,10.32
2023-01-09T20:22:41.485Z,9.25
2023-01-09T20:25:11.022Z,9.40
2023-01-09T20:27:38.992Z,16.80
2023-01-09T20:30:08.423Z,9.10
2023-01-09T20:32:37.019Z,14.38
2023-01-09T20:35:05.169Z,13.90
2023-01-09T20:37:33.079Z,12.23
2023-01-09T20:40:02.340Z,15.20
2023-01-09T20:42:30.269Z,13.40
2023-01-09T20:44:58.565Z,16.17
2023-01-09T20:47:26.637Z,18.20
2023-01-09T20:49:54.616Z,17.17
2023-01-09T20:52:22.858Z,18.50
2023-01-09T20:54:50.829Z,22.33
2023-01-09T20:57:20.119Z,17.45
2023-01-09T20:59:48.331Z,15.68
2023-01-09T21:02:16.311Z,18.52
2023-01-09T21:04:44.236Z,18.30
2023-01-09T21:07:12.228Z,20.63
2023-01-09T21:09:40.167Z,19.30
2023-01-09T21:12:24.694Z,21.27
2023-01-09T21:14:54.552Z,18.52
2023-01-09T21:17:24.112Z,29.33
2023-01-09T21:19:52.024Z,39.85
2023-01-09T21:22:20.245Z,46.40
2023-01-09T21:24:50.333Z,32.33
2023-01-09T21:27:18.489Z,38.03
2023-01-09T21:29:46.614Z,32.38
2023-01-09T21:32:15.978Z,23.88
2023-01-09T21:34:43.922Z,18.45
2023-01-09T21:37:11.901Z,17.30
2023-01-09T21:39:40.014Z,17.85
2023-01-09T21:42:25.387Z,18.08
2023-01-09T21:45:11.269Z,21.38
2023-01-09T21:47:40.515Z,27.00
2023-01-09T21:50:09.615Z,25.45
2023-01-09T21:52:37.618Z,32.33
2023-01-09T21:55:06.395Z,29.75
2023-01-09T21:57:34.355Z,23.60
2023-01-09T22:00:02.315Z,30.23
2023-01-09T22:02:41.099Z,24.38
2023-01-09T22:05:11.627Z,27.80
2023-01-09T22:07:41.232Z,53.60
2023-01-09T22:10:10.561Z,53.60
2023-01-09T22:12:38.510Z,49.03
2023-01-09T22:15:09.407Z,40.03
2023-01-09T22:17:37.324Z,37.55
2023-01-09T22:20:07.719Z,33.22
2023-01-09T22:22:35.734Z,31.35
2023-01-09T22:25:04.178Z,26.23
2023-01-09T22:27:32.099Z,29.17
2023-01-09T22:30:00.149Z,29.50
2023-01-09T22:32:28.079Z,23.10
2023-01-09T22:34:56.008Z,19.77
2023-01-09T22:37:25.275Z,24.88
2023-01-09T22:39:53.239Z,20.05
2023-01-09T22:42:21.153Z,23.85
2023-01-09T22:44:49.049Z,20.15
2023-01-09T22:47:16.947Z,22.02
2023-01-09T22:49:52.882Z,21.05
2023-01-09T22:52:21.464Z,19.80
2023-01-09T22:54:50.819Z,31.13
2023-01-09T22:57:18.763Z,33.15
2023-01-09T22:59:46.706Z,28.73
2023-01-09T23:02:14.675Z,26.85
2023-01-09T23:04:42.616Z,27.63
2023-01-09T23:07:10.534Z,28.73
2023-01-09T23:09:38.804Z,31.85
2023-01-09T23:12:08.630Z,33.17
2023-01-09T23:14:38.293Z,27.70
2023-01-09T23:17:07.946Z,31.08
2023-01-09T23:19:36.121Z,27.48
2023-01-09T23:22:06.173Z,29.15
2023-01-09T23:24:34.375Z,26.33
2023-01-09T23:27:04.339Z,23.08
2023-01-09T23:29:35.292Z,26.48
2023-01-09T23:32:07.111Z,24.10
2023-01-09T23:34:35.140Z,17.63
2023-01-09T23:37:08.849Z,21.35
2023-01-09T23:39:36.888Z,18.77
2023-01-09T23:42:22.829Z,14.38
2023-01-09T23:44:52.133Z,18.90
2023-01-09T23:47:20.050Z,17.95
2023-01-09T23:49:49.930Z,16.40
2023-01-09T23:52:18.180Z,15.02
2023-01-09T23:54:46.097Z,14.07
2023-01-09T23:57:14.058Z,14.88
2023-01-09T23:59:44.293Z,14.45
